createdAt,value
2019-05-21T00:00:51.675Z,11.43
2019-05-21T00:03:22.238Z,11.50
2019-05-21T00:05:52.648Z,11.93
2019-05-21T00:08:23.317Z,11.00
2019-05-21T00:10:54.243Z,11.80
2019-05-21T00:13:24.952Z,10.67
2019-05-21T00:15:55.486Z,9.83
2019-05-21T00:18:26.180Z,9.90
2019-05-21T00:20:56.650Z,9.03
2019-05-21T00:23:28.514Z,9.13
2019-05-21T00:25:59.004Z,8.73
2019-05-21T00:28:40.292Z,8.80
2019-05-21T00:31:46.608Z,8.43
2019-05-21T00:34:53.195Z,8.73
2019-05-21T00:37:59.733Z,8.40
2019-05-21T00:41:06.157Z,8.40
2019-05-21T00:43:54.789Z,8.37
2019-05-21T00:46:25.381Z,8.10
2019-05-21T00:48:56.197Z,8.33
2019-05-21T00:51:26.652Z,8.33
2019-05-21T00:53:57.223Z,7.73
2019-05-21T00:56:27.665Z,8.07
2019-05-21T00:58:58.138Z,8.07
2019-05-21T01:01:28.527Z,8.40
2019-05-21T01:03:59.247Z,7.97
2019-05-21T01:06:29.878Z,8.63
2019-05-21T01:09:05.747Z,8.77
2019-05-21T01:11:36.402Z,8.33
2019-05-21T01:14:07.151Z,8.70
2019-05-21T01:16:38.371Z,8.93
2019-05-21T01:19:08.869Z,8.73
2019-05-21T01:21:39.274Z,8.37
2019-05-21T01:24:09.770Z,7.83
2019-05-21T01:26:40.250Z,7.90
2019-05-21T01:29:11.076Z,7.97
2019-05-21T01:31:42.922Z,8.33
2019-05-21T01:34:13.335Z,8.40
2019-05-21T01:36:43.980Z,8.83
2019-05-21T01:39:14.765Z,8.40
2019-05-21T01:41:45.234Z,8.40
2019-05-21T01:44:15.854Z,8.67
2019-05-21T01:46:46.236Z,8.33
2019-05-21T01:49:23.307Z,8.77
2019-05-21T01:51:54.018Z,8.70
2019-05-21T01:54:24.776Z,8.13
2019-05-21T01:56:55.272Z,8.23
2019-05-21T01:59:26.810Z,9.10
2019-05-21T02:01:57.358Z,9.00
2019-05-21T02:04:28.196Z,9.43
2019-05-21T02:06:58.632Z,8.80
2019-05-21T02:09:29.110Z,9.20
2019-05-21T02:11:59.949Z,8.80
2019-05-21T02:14:30.431Z,9.23
2019-05-21T02:17:00.862Z,9.57
2019-05-21T02:19:31.477Z,9.10
2019-05-21T02:22:01.804Z,9.70
2019-05-21T02:24:32.331Z,9.50
2019-05-21T02:27:02.950Z,10.33
2019-05-21T02:29:33.430Z,10.13
2019-05-21T02:32:03.900Z,9.60
2019-05-21T02:34:34.650Z,9.60
2019-05-21T02:37:06.329Z,9.63
2019-05-21T02:39:37.229Z,10.17
2019-05-21T02:42:08.059Z,10.00
2019-05-21T02:44:38.527Z,10.10
2019-05-21T02:47:08.940Z,10.00
2019-05-21T02:49:39.353Z,10.07
2019-05-21T02:52:09.855Z,9.63
2019-05-21T02:54:41.820Z,8.93
2019-05-21T02:57:12.484Z,9.17
2019-05-21T02:59:44.551Z,9.77
2019-05-21T03:02:25.834Z,9.17
2019-05-21T03:04:56.570Z,9.47
2019-05-21T03:07:27.090Z,9.00
2019-05-21T03:09:57.938Z,9.63
2019-05-21T03:12:28.384Z,10.13
2019-05-21T03:14:59.273Z,9.50
2019-05-21T03:17:29.798Z,10.70
2019-05-21T03:20:00.879Z,10.90
2019-05-21T03:22:31.570Z,10.77
2019-05-21T03:25:02.919Z,11.23
2019-05-21T03:27:33.568Z,11.90
2019-05-21T03:30:04.592Z,11.77
2019-05-21T03:32:35.215Z,11.17
2019-05-21T03:35:06.066Z,11.23
2019-05-21T03:37:36.832Z,10.73
2019-05-21T03:40:07.800Z,10.53
2019-05-21T03:42:39.184Z,11.00
2019-05-21T03:45:10.103Z,10.60
2019-05-21T03:47:40.538Z,10.53
2019-05-21T03:50:11.060Z,10.73
2019-05-21T03:52:41.753Z,9.97
2019-05-21T03:55:12.551Z,9.63
2019-05-21T03:57:43.298Z,10.67
2019-05-21T04:00:14.101Z,10.30
2019-05-21T04:02:44.580Z,9.70
2019-05-21T04:05:24.940Z,10.17
2019-05-21T04:07:55.582Z,9.50
2019-05-21T04:10:26.997Z,10.67
2019-05-21T04:13:07.295Z,9.43
2019-05-21T04:16:06.456Z,10.03
2019-05-21T04:18:44.494Z,10.40
2019-05-21T04:21:14.987Z,10.40
2019-05-21T04:23:45.905Z,11.03
2019-05-21T04:26:16.302Z,10.47
2019-05-21T04:28:46.993Z,10.10
2019-05-21T04:31:17.481Z,10.43
2019-05-21T04:33:47.881Z,10.70
2019-05-21T04:36:18.538Z,10.63
2019-05-21T04:38:49.290Z,10.20
2019-05-21T04:41:19.858Z,10.93
2019-05-21T04:43:50.519Z,10.23
2019-05-21T04:46:21.722Z,10.17
2019-05-21T04:48:52.395Z,9.90
2019-05-21T04:51:22.922Z,10.73
2019-05-21T04:53:53.525Z,10.13
2019-05-21T04:56:24.098Z,9.73
2019-05-21T04:58:54.543Z,10.10
2019-05-21T05:01:25.163Z,10.00
2019-05-21T05:03:55.700Z,13.03
2019-05-21T05:06:26.245Z,10.10
2019-05-21T05:08:56.788Z,9.33
2019-05-21T05:11:27.249Z,9.67
2019-05-21T05:13:57.828Z,9.50
2019-05-21T05:16:28.730Z,9.03
2019-05-21T05:18:59.166Z,9.07
2019-05-21T05:21:30.064Z,8.93
2019-05-21T05:24:00.462Z,9.07
2019-05-21T05:26:30.935Z,8.60
2019-05-21T05:29:01.590Z,8.63
2019-05-21T05:31:32.140Z,8.77
2019-05-21T05:34:02.869Z,8.67
2019-05-21T05:36:33.326Z,8.53
2019-05-21T05:39:04.610Z,8.93
2019-05-21T05:41:35.433Z,8.67
2019-05-21T05:44:05.814Z,9.20
2019-05-21T05:46:36.614Z,8.87
2019-05-21T05:49:15.763Z,9.07
2019-05-21T05:51:46.247Z,9.10
2019-05-21T05:54:16.741Z,9.50
2019-05-21T05:56:47.191Z,9.17
2019-05-21T05:59:17.834Z,10.07
2019-05-21T06:01:48.455Z,9.57
2019-05-21T06:04:18.951Z,9.43
2019-05-21T06:06:49.396Z,8.97
2019-05-21T06:09:20.119Z,8.60
2019-05-21T06:11:50.683Z,8.97
2019-05-21T06:14:21.079Z,9.70
2019-05-21T06:16:51.895Z,8.80
2019-05-21T06:19:22.264Z,9.03
2019-05-21T06:21:52.893Z,8.60
2019-05-21T06:24:23.491Z,8.57
2019-05-21T06:26:53.898Z,8.40
2019-05-21T06:29:24.645Z,8.53
2019-05-21T06:31:55.054Z,8.40
2019-05-21T06:34:25.483Z,8.07
2019-05-21T06:36:55.979Z,7.73
2019-05-21T06:39:26.490Z,7.43
2019-05-21T06:41:56.924Z,7.27
2019-05-21T06:44:27.551Z,7.23
2019-05-21T06:46:58.012Z,6.10
2019-05-21T06:49:28.421Z,6.50
2019-05-21T06:51:59.027Z,5.33
2019-05-21T06:54:29.596Z,5.50
2019-05-21T06:57:00.053Z,5.03
2019-05-21T06:59:30.503Z,5.83
2019-05-21T07:02:01.165Z,5.90
2019-05-21T07:04:31.571Z,5.17
2019-05-21T07:07:01.960Z,4.80
2019-05-21T07:09:32.477Z,4.63
2019-05-21T07:12:03.146Z,4.90
2019-05-21T07:14:33.798Z,4.47
2019-05-21T07:17:05.410Z,4.47
2019-05-21T07:19:35.939Z,4.20
2019-05-21T07:22:12.793Z,4.47
2019-05-21T07:24:38.708Z,4.33
2019-05-21T07:27:09.099Z,4.20
2019-05-21T07:29:40.159Z,4.57
2019-05-21T07:32:10.636Z,4.57
2019-05-21T07:34:41.221Z,4.33
2019-05-21T07:37:11.837Z,4.70
2019-05-21T07:39:42.647Z,4.70
2019-05-21T07:42:13.325Z,4.27
2019-05-21T07:44:43.761Z,4.47
2019-05-21T07:47:14.591Z,4.33
2019-05-21T07:49:45.469Z,4.10
2019-05-21T07:52:15.913Z,3.93
2019-05-21T07:54:46.995Z,3.90
2019-05-21T07:57:17.543Z,3.30
2019-05-21T07:59:48.314Z,3.37
2019-05-21T08:02:18.779Z,2.70
2019-05-21T08:04:49.430Z,3.20
2019-05-21T08:07:19.946Z,3.20
2019-05-21T08:09:50.722Z,3.40
2019-05-21T08:12:37.490Z,3.10
2019-05-21T08:14:53.506Z,3.13
2019-05-21T08:17:23.999Z,3.50
2019-05-21T08:19:54.638Z,3.00
2019-05-21T08:22:25.138Z,3.10
2019-05-21T08:24:55.792Z,3.27
2019-05-21T08:27:26.385Z,2.77
2019-05-21T08:29:56.867Z,3.00
2019-05-21T08:32:27.388Z,3.20
2019-05-21T08:34:57.881Z,2.87
2019-05-21T08:37:28.411Z,3.10
2019-05-21T08:39:58.861Z,2.90
2019-05-21T08:42:29.347Z,2.67
2019-05-21T08:44:59.767Z,2.90
2019-05-21T08:47:30.697Z,3.07
2019-05-21T08:50:01.206Z,2.40
2019-05-21T08:52:31.746Z,2.60
2019-05-21T08:55:02.369Z,3.00
2019-05-21T08:57:33.261Z,2.57
2019-05-21T09:00:04.092Z,3.27
2019-05-21T09:02:35.905Z,2.87
2019-05-21T09:05:07.792Z,2.73
2019-05-21T09:07:38.443Z,2.60
2019-05-21T09:10:09.340Z,2.53
2019-05-21T09:12:39.874Z,3.50
2019-05-21T09:15:10.779Z,4.10
2019-05-21T09:17:41.389Z,3.90
2019-05-21T09:20:12.406Z,3.83
2019-05-21T09:22:42.928Z,3.83
2019-05-21T09:25:14.282Z,3.87
2019-05-21T09:27:44.772Z,4.83
2019-05-21T09:30:15.732Z,4.50
2019-05-21T09:32:46.162Z,4.90
2019-05-21T09:35:17.121Z,4.37
2019-05-21T09:37:47.606Z,4.77
2019-05-21T09:40:18.837Z,4.60
2019-05-21T09:42:49.279Z,5.20
2019-05-21T09:45:19.962Z,5.40
2019-05-21T09:47:50.840Z,5.50
2019-05-21T09:50:21.652Z,5.40
2019-05-21T09:52:52.310Z,5.30
2019-05-21T09:55:22.888Z,5.87
2019-05-21T09:58:15.091Z,5.73
2019-05-21T10:01:13.484Z,5.83
2019-05-21T10:03:46.306Z,6.13
2019-05-21T10:06:17.207Z,6.33
2019-05-21T10:08:47.647Z,7.00
2019-05-21T10:11:18.269Z,7.70
2019-05-21T10:13:48.869Z,7.63
2019-05-21T10:16:19.441Z,8.00
2019-05-21T10:18:50.097Z,7.90
2019-05-21T10:21:20.808Z,7.50
2019-05-21T10:23:51.445Z,7.13
2019-05-21T10:26:22.203Z,7.37
2019-05-21T10:28:52.881Z,7.67
2019-05-21T10:31:23.555Z,8.00
2019-05-21T10:36:47.832Z,7.90
2019-05-21T10:39:18.434Z,7.90
2019-05-21T10:41:49.239Z,7.53
2019-05-21T10:44:20.035Z,8.10
2019-05-21T10:46:50.525Z,8.10
2019-05-21T10:49:21.215Z,8.17
2019-05-21T10:51:51.782Z,7.37
2019-05-21T10:54:22.294Z,8.23
2019-05-21T10:56:52.810Z,8.43
2019-05-21T10:59:23.546Z,7.87
2019-05-21T11:02:13.383Z,7.90
2019-05-21T11:05:02.910Z,8.37
2019-05-21T11:07:33.945Z,8.30
2019-05-21T11:10:07.613Z,8.47
2019-05-21T11:12:38.392Z,8.43
2019-05-21T11:15:09.513Z,8.47
2019-05-21T11:17:53.334Z,8.40
2019-05-21T11:20:12.476Z,8.60
2019-05-21T11:22:43.062Z,8.40
2019-05-21T11:25:13.581Z,8.70
2019-05-21T11:27:44.077Z,7.97
2019-05-21T11:30:14.856Z,7.90
2019-05-21T11:32:47.939Z,8.40
2019-05-21T11:35:17.873Z,8.43
2019-05-21T11:37:48.410Z,8.07
2019-05-21T11:40:19.769Z,8.30
2019-05-21T11:42:53.020Z,7.67
2019-05-21T11:45:31.741Z,8.30
2019-05-21T11:47:55.077Z,8.27
2019-05-21T11:50:25.659Z,7.97
2019-05-21T11:52:56.117Z,7.80
2019-05-21T11:55:27.061Z,8.30
2019-05-21T11:57:57.453Z,8.20
2019-05-21T12:00:29.345Z,9.40
2019-05-21T12:02:59.841Z,10.27
2019-05-21T12:05:30.278Z,10.70
2019-05-21T12:08:00.728Z,9.63
2019-05-21T12:10:31.338Z,10.17
2019-05-21T12:13:01.912Z,9.80
2019-05-21T12:15:32.742Z,9.77
2019-05-21T12:18:03.147Z,10.17
2019-05-21T12:20:37.148Z,9.13
2019-05-21T12:23:06.015Z,8.60
2019-05-21T12:25:37.533Z,7.97
2019-05-21T12:28:11.123Z,7.30
2019-05-21T12:30:40.079Z,7.50
2019-05-21T12:33:10.966Z,7.30
2019-05-21T12:35:41.524Z,7.13
2019-05-21T12:38:12.186Z,7.70
2019-05-21T12:40:42.646Z,7.63
2019-05-21T12:43:13.212Z,7.00
2019-05-21T12:45:43.912Z,7.50
2019-05-21T12:48:14.754Z,7.43
2019-05-21T12:50:45.244Z,7.33
2019-05-21T12:53:16.743Z,6.87
2019-05-21T12:55:47.278Z,7.20
2019-05-21T12:58:17.690Z,6.50
2019-05-21T13:00:48.099Z,5.70
2019-05-21T13:03:18.582Z,5.20
2019-05-21T13:05:49.024Z,4.97
2019-05-21T13:08:19.551Z,4.83
2019-05-21T13:10:50.097Z,4.62
2019-05-21T13:13:20.684Z,4.45
2019-05-21T13:15:51.207Z,4.28
2019-05-21T13:18:21.935Z,4.17
2019-05-21T13:20:52.526Z,4.65
2019-05-21T13:23:23.367Z,4.20
2019-05-21T13:25:54.103Z,3.90
2019-05-21T13:28:25.060Z,3.52
2019-05-21T13:30:55.490Z,3.52
2019-05-21T13:33:26.443Z,3.40
2019-05-21T13:35:56.973Z,3.70
2019-05-21T13:38:27.629Z,3.35
2019-05-21T13:40:59.459Z,3.40
2019-05-21T13:43:29.952Z,3.60
2019-05-21T13:46:00.676Z,3.02
2019-05-21T13:48:31.403Z,3.00
2019-05-21T13:51:02.887Z,3.08
2019-05-21T13:53:33.769Z,2.95
2019-05-21T13:56:04.769Z,2.85
2019-05-21T13:58:35.314Z,3.00
2019-05-21T14:01:08.046Z,3.10
2019-05-21T14:03:38.668Z,2.90
2019-05-21T14:06:09.646Z,3.05
2019-05-21T14:08:40.048Z,3.45
2019-05-21T14:11:10.944Z,3.20
2019-05-21T14:13:41.682Z,3.45
2019-05-21T14:16:12.335Z,3.35
2019-05-21T14:18:43.114Z,3.72
2019-05-21T14:21:13.771Z,4.00
2019-05-21T14:23:44.248Z,4.35
2019-05-21T14:26:15.028Z,4.70
2019-05-21T14:28:45.704Z,4.30
2019-05-21T14:31:16.360Z,4.10
2019-05-21T14:33:47.072Z,4.67
2019-05-21T14:36:17.676Z,3.80
2019-05-21T14:38:48.123Z,4.30
2019-05-21T14:41:18.597Z,4.07
2019-05-21T14:43:49.462Z,4.43
2019-05-21T14:46:20.332Z,4.60
2019-05-21T14:48:50.827Z,4.40
2019-05-21T14:51:21.302Z,4.40
2019-05-21T14:53:51.881Z,4.15
2019-05-21T14:56:22.284Z,3.95
2019-05-21T14:58:52.927Z,4.08
2019-05-21T15:01:23.569Z,4.25
2019-05-21T15:03:54.362Z,3.12
2019-05-21T15:06:24.919Z,3.80
2019-05-21T15:08:55.503Z,3.17
2019-05-21T15:11:26.117Z,3.33
2019-05-21T15:13:56.595Z,3.08
2019-05-21T15:16:27.193Z,3.27
2019-05-21T15:18:58.082Z,3.30
2019-05-21T15:21:47.435Z,3.42
2019-05-21T15:24:17.942Z,3.95
2019-05-21T15:26:48.408Z,3.95
2019-05-21T15:29:18.895Z,4.05
2019-05-21T15:31:49.424Z,3.50
2019-05-21T15:34:20.756Z,4.10
2019-05-21T15:36:51.222Z,4.10
2019-05-21T15:39:21.918Z,4.20
2019-05-21T15:41:52.383Z,4.20
2019-05-21T15:44:22.833Z,4.43
2019-05-21T15:46:53.464Z,4.63
2019-05-21T15:49:35.751Z,4.40
2019-05-21T15:51:57.877Z,4.43
2019-05-21T15:54:28.409Z,4.10
2019-05-21T15:56:58.955Z,3.93
2019-05-21T15:59:29.697Z,3.90
2019-05-21T16:02:00.188Z,3.63
2019-05-21T16:04:30.751Z,4.17
2019-05-21T16:07:01.232Z,3.90
2019-05-21T16:09:31.905Z,4.53
2019-05-21T16:12:02.454Z,4.10
2019-05-21T16:14:33.041Z,4.27
2019-05-21T16:17:03.903Z,3.70
2019-05-21T16:19:35.932Z,3.70
2019-05-21T16:22:06.429Z,2.80
2019-05-21T16:24:37.105Z,2.67
2019-05-21T16:27:07.839Z,2.20
2019-05-21T16:29:38.471Z,1.97
2019-05-21T16:32:08.945Z,2.00
2019-05-21T16:34:39.627Z,1.90
2019-05-21T16:37:10.212Z,2.10
2019-05-21T16:39:40.651Z,2.17
2019-05-21T16:42:12.645Z,2.30
2019-05-21T16:44:43.127Z,2.30
2019-05-21T16:47:13.716Z,2.03
2019-05-21T16:49:44.708Z,1.97
2019-05-21T16:52:15.888Z,1.57
2019-05-21T16:54:46.517Z,1.50
2019-05-21T16:57:16.954Z,1.00
2019-05-21T16:59:47.722Z,1.10
2019-05-21T17:02:18.159Z,1.10
2019-05-21T17:04:48.856Z,1.10
2019-05-21T17:07:19.438Z,1.07
2019-05-21T17:09:50.162Z,1.23
2019-05-21T17:12:21.796Z,1.20
2019-05-21T17:14:52.571Z,1.10
2019-05-21T17:17:23.067Z,1.20
2019-05-21T17:19:53.572Z,1.47
2019-05-21T17:22:24.407Z,1.10
2019-05-21T17:24:54.923Z,1.60
2019-05-21T17:27:25.806Z,0.93
2019-05-21T17:29:56.421Z,1.40
2019-05-21T17:32:26.981Z,1.27
2019-05-21T17:34:57.597Z,1.40
2019-05-21T17:37:28.043Z,1.17
2019-05-21T17:39:58.772Z,1.43
2019-05-21T17:42:29.560Z,1.50
2019-05-21T17:45:00.069Z,1.50
2019-05-21T17:47:30.685Z,1.50
2019-05-21T17:50:01.341Z,1.20
2019-05-21T17:52:31.917Z,1.20
2019-05-21T17:55:02.857Z,1.27
2019-05-21T17:57:35.745Z,1.30
2019-05-21T18:00:07.835Z,1.60
2019-05-21T18:02:39.304Z,1.90
2019-05-21T18:05:10.519Z,1.50
2019-05-21T18:07:42.088Z,1.70
2019-05-21T18:10:14.515Z,1.40
2019-05-21T18:12:45.613Z,1.30
2019-05-21T18:15:17.095Z,1.20
2019-05-21T18:17:48.090Z,1.53
2019-05-21T18:20:20.478Z,0.87
2019-05-21T18:22:52.507Z,1.47
2019-05-21T18:25:24.615Z,1.03
2019-05-21T18:27:55.606Z,1.50
2019-05-21T18:30:26.250Z,1.50
2019-05-21T18:32:57.004Z,1.17
2019-05-21T18:35:27.494Z,1.00
2019-05-21T18:37:58.723Z,1.20
2019-05-21T18:40:29.686Z,1.23
2019-05-21T18:43:00.293Z,1.20
2019-05-21T18:45:30.849Z,1.30
2019-05-21T18:48:01.614Z,1.87
2019-05-21T18:50:36.350Z,1.70
2019-05-21T18:53:04.666Z,1.80
2019-05-21T18:55:35.969Z,1.50
2019-05-21T18:58:06.687Z,1.30
2019-05-21T19:00:37.870Z,1.30
2019-05-21T19:03:09.549Z,1.50
2019-05-21T19:05:40.232Z,1.37
2019-05-21T19:08:11.317Z,1.30
2019-05-21T19:10:42.065Z,1.40
2019-05-21T19:13:12.763Z,1.30
2019-05-21T19:15:43.439Z,1.20
2019-05-21T19:18:14.083Z,1.30
2019-05-21T19:20:45.242Z,1.40
2019-05-21T19:23:15.718Z,1.40
2019-05-21T19:25:46.369Z,1.40
2019-05-21T19:28:16.995Z,1.47
2019-05-21T19:30:48.613Z,1.40
2019-05-21T19:33:19.407Z,1.60
2019-05-21T19:35:49.828Z,1.57
2019-05-21T19:38:20.697Z,1.60
2019-05-21T19:40:51.609Z,1.50
2019-05-21T19:43:22.265Z,1.40
2019-05-21T19:45:52.817Z,1.43
2019-05-21T19:48:23.617Z,1.53
2019-05-21T19:50:54.503Z,1.23
2019-05-21T19:54:01.272Z,1.20
2019-05-21T19:56:32.059Z,1.40
2019-05-21T19:59:03.544Z,1.10
2019-05-21T20:01:34.829Z,1.20
2019-05-21T20:04:06.858Z,1.30
2019-05-21T20:06:37.358Z,1.30
2019-05-21T20:09:12.420Z,1.20
2019-05-21T20:11:45.159Z,1.13
2019-05-21T20:14:16.112Z,1.30
2019-05-21T20:16:46.879Z,1.37
2019-05-21T20:19:19.548Z,1.77
2019-05-21T20:21:50.048Z,1.40
2019-05-21T20:24:21.984Z,1.50
2019-05-21T20:26:53.777Z,1.33
2019-05-21T20:29:27.535Z,1.50
2019-05-21T20:32:00.002Z,1.73
2019-05-21T20:34:30.671Z,1.60
2019-05-21T20:37:02.318Z,1.67
2019-05-21T20:39:35.134Z,1.70
2019-05-21T20:42:06.536Z,1.60
2019-05-21T20:44:37.469Z,1.70
2019-05-21T20:47:10.569Z,1.87
2019-05-21T20:49:43.150Z,1.77
2019-05-21T20:52:18.945Z,1.63
2019-05-21T20:54:52.876Z,1.97
2019-05-21T20:57:24.380Z,2.07
2019-05-21T20:59:56.260Z,2.00
2019-05-21T21:02:28.443Z,1.70
2019-05-21T21:04:59.215Z,1.90
2019-05-21T21:07:30.368Z,1.60
2019-05-21T21:10:00.845Z,2.00
2019-05-21T21:12:31.504Z,1.90
2019-05-21T21:15:10.246Z,1.57
2019-05-21T21:17:40.785Z,1.90
2019-05-21T21:20:12.192Z,2.17
2019-05-21T21:22:42.837Z,2.00
2019-05-21T21:25:15.639Z,1.80
2019-05-21T21:27:46.723Z,2.00
2019-05-21T21:30:17.510Z,1.87
2019-05-21T21:32:47.981Z,2.13
2019-05-21T21:35:19.446Z,2.10
2019-05-21T21:37:49.905Z,2.10
2019-05-21T21:40:22.362Z,1.97
2019-05-21T21:42:53.430Z,2.00
2019-05-21T21:45:23.960Z,2.20
2019-05-21T21:47:54.954Z,1.77
2019-05-21T21:50:28.872Z,1.93
2019-05-21T21:53:00.074Z,1.97
2019-05-21T21:55:32.080Z,1.87
2019-05-21T21:58:03.334Z,1.90
2019-05-21T22:01:25.696Z,1.80
2019-05-21T22:04:00.947Z,2.20
2019-05-21T22:06:35.615Z,2.33
2019-05-21T22:09:12.163Z,2.33
2019-05-21T22:11:53.237Z,2.33
2019-05-21T22:14:24.862Z,2.30
2019-05-21T22:16:55.768Z,2.53
2019-05-21T22:19:26.953Z,2.40
2019-05-21T22:21:57.968Z,2.10
2019-05-21T22:27:46.607Z,2.53
2019-05-21T22:30:17.775Z,2.50
2019-05-21T22:32:48.401Z,2.80
2019-05-21T22:35:18.960Z,3.10
2019-05-21T22:37:49.491Z,3.07
2019-05-21T22:40:20.341Z,2.60
2019-05-21T22:42:51.216Z,3.00
2019-05-21T22:45:21.593Z,2.70
2019-05-21T22:47:52.142Z,2.67
2019-05-21T22:50:22.851Z,3.30
2019-05-21T22:52:53.231Z,2.83
2019-05-21T22:55:23.660Z,2.50
2019-05-21T22:57:54.861Z,2.30
2019-05-21T23:00:25.652Z,2.50
2019-05-21T23:02:56.193Z,2.67
2019-05-21T23:05:27.000Z,2.70
2019-05-21T23:07:57.945Z,2.73
2019-05-21T23:10:28.324Z,2.83
2019-05-21T23:12:58.903Z,2.70
2019-05-21T23:15:29.798Z,2.73
2019-05-21T23:18:19.212Z,2.77
2019-05-21T23:21:08.863Z,3.20
2019-05-21T23:23:41.552Z,3.10
2019-05-21T23:26:12.739Z,3.10
2019-05-21T23:28:44.777Z,3.13
2019-05-21T23:31:17.062Z,2.60
2019-05-21T23:33:49.948Z,3.00
2019-05-21T23:36:20.432Z,2.40
2019-05-21T23:38:51.954Z,2.90
2019-05-21T23:41:24.263Z,2.70
2019-05-21T23:43:55.051Z,2.60
2019-05-21T23:46:25.853Z,2.67
2019-05-21T23:48:56.685Z,2.80
2019-05-21T23:51:27.165Z,2.43
2019-05-21T23:53:58.266Z,2.73
2019-05-21T23:56:29.081Z,2.70
2019-05-21T23:58:59.911Z,3.03
